Pagrindinis puslapis
METAR-TAF:

METAR-TAF

Oro uostai :

Mehongsonas, Tailandas

platuma: 19-18N, ilguma: 097-50E, Aukštis: 267 m

Dabartinis oras

Ataskaita buvo paskelbta 48 minutes, ne 06:00 UTC
Vėjas 3 kt iš Šiaurės
Temperatūra 38°C
Drėgmė 26%
Slėgis 1012 hPa
Matomumas: 4000 m
Mažai debesys ne aukštis 2500 ft
migla

METAR: VTCH 100600Z 01003KT 4000 HZ FEW025 38/15 Q1012

Laikas: 13:48 (06:48 UTC)

Prognozė

Ataskaita buvo paskelbta 1 valandą ir 48 minutes, ne 05:00 UTC
Prognozė galioja nuo 10 metu 06 UTC su 11 metu 06 UTC
Vėjas 5 kt iš Vakarų/Pietvakarių
Matomumas: 5000 m
Mažai debesys ne aukštis 2500 ft
migla
Tapsmas
nuo 10 metu 22 UTC su 10 metu 24 UTC
Matomumas: 2000 m
Tapsmas
nuo 11 metu 04 UTC su 11 metu 06 UTC
Matomumas: 4000 m

TAF: VTCH 100500Z 1006/1106 24005KT 5000 HZ FEW025 BECMG 1022/1024 2000 BECMG 1104/1106 4000

Orai ataskaitas ir orų prognozės (METAR, TAF).

turimą stotys yra geltonos ir raudonos taškus žemėlapyje.

Perkelti pele per norėdami pamatyti stoties vardą.

Tada spustelėkite, norėdami matyti oro stebėjimo ir prognozės.

Norėdami pakeisti žemėlapį: spustelėkite ant žalios mygtukų su juodo kryžiaus žemyn,; žalią mygtuką su brūkšneliu, jei norite nutolinti; arba žalių rodyklių gretimoms žemėlapius.


METAR-TAF: